Time;durP1;ratioP1;P1;durP2;ratioP2;P2;SDS_P1;SDS_P2;PMS_P1;PMS_P2;Temp;Humidity;BMP_temperature;BMP_pressure;BME280_temperature;BME280_humidity;BME280_pressure;Samples;Min_cycle;Max_cycle;Signal;HPM_P1;HPM_P2
2023/04/07 00:01:16;;;;;;;4.65;1.00;;;;;;;;;;5087038;28;20039;-46
2023/04/07 00:03:43;;;;;;;6.72;0.93;;;;;;;;;;5079646;28;20115;-43
2023/04/07 00:06:11;;;;;;;6.05;0.82;;;;;;;;;;5091665;28;20040;-45
2023/04/07 00:08:39;;;;;;;4.23;0.57;;;;;;;;;;5086401;28;20657;-44
2023/04/07 00:11:08;;;;;;;5.35;0.73;;;;;;;;;;5088941;28;20035;-44
2023/04/07 00:13:36;;;;;;;4.97;0.75;;;;;;;;;;5090978;28;20498;-44
2023/04/07 00:16:04;;;;;;;4.32;0.88;;;;;;;;;;5082206;28;20488;-44
2023/04/07 00:18:32;;;;;;;3.72;0.50;;;;;;;;;;5085301;28;20060;-44
2023/04/07 00:21:00;;;;;;;3.30;0.80;;;;;;;;;;5086887;28;20046;-44
2023/04/07 00:23:27;;;;;;;4.82;0.70;;;;;;;;;;5094331;28;20042;-44
2023/04/07 00:25:55;;;;;;;6.22;0.70;;;;;;;;;;5079837;28;20036;-43
2023/04/07 00:28:24;;;;;;;4.32;0.60;;;;;;;;;;5083272;28;20120;-45
2023/04/07 00:30:52;;;;;;;4.63;1.10;;;;;;;;;;5085440;28;20036;-45
2023/04/07 00:33:20;;;;;;;5.07;0.93;;;;;;;;;;5095932;28;20075;-44
2023/04/07 00:35:47;;;;;;;7.43;1.55;;;;;;;;;;5080703;28;20032;-45
2023/04/07 00:38:15;;;;;;;4.47;0.90;;;;;;;;;;5094102;28;20112;-44
2023/04/07 00:40:43;;;;;;;5.10;0.80;;;;;;;;;;5090805;28;20036;-45
2023/04/07 00:43:11;;;;;;;4.30;0.73;;;;;;;;;;5094317;28;20036;-45
2023/04/07 00:45:40;;;;;;;9.00;3.27;;;;;;;;;;5077234;28;20367;-45
2023/04/07 00:48:08;;;;;;;9.95;3.50;;;;;;;;;;5088104;28;20097;-43
2023/04/07 00:50:35;;;;;;;11.73;4.75;;;;;;;;;;5082376;28;20446;-43
2023/04/07 00:53:05;;;;;;;12.63;5.75;;;;;;;;;;5094146;28;20085;-43
2023/04/07 00:55:33;;;;;;;13.50;6.10;;;;;;;;;;5086440;28;20035;-43
2023/04/07 00:58:01;;;;;;;12.53;4.63;;;;;;;;;;5087492;28;20050;-44
2023/04/07 01:00:29;;;;;;;8.02;3.42;;;;;;;;;;5087744;28;20048;-44
2023/04/07 01:02:59;;;;;;;7.13;1.55;;;;;;;;;;5086821;28;20043;-43
2023/04/07 01:05:31;;;;;;;6.53;1.00;;;;;;;;;;5094450;28;20046;-45
2023/04/07 01:08:03;;;;;;;6.57;1.05;;;;;;;;;;5069261;28;20068;-44
2023/04/07 01:10:35;;;;;;;5.00;1.10;;;;;;;;;;5078866;28;20122;-45
2023/04/07 01:13:09;;;;;;;4.68;1.20;;;;;;;;;;5089812;28;20063;-47
2023/04/07 01:15:38;;;;;;;5.35;1.02;;;;;;;;;;5090108;28;20043;-45
2023/04/07 01:18:10;;;;;;;6.53;0.90;;;;;;;;;;5085632;28;20077;-46
2023/04/07 01:20:38;;;;;;;6.70;0.88;;;;;;;;;;5093854;28;20111;-45
2023/04/07 01:23:07;;;;;;;5.83;0.70;;;;;;;;;;5090754;28;20071;-43
2023/04/07 01:25:53;;;;;;;4.70;1.27;;;;;;;;;;5087224;28;20036;-43
2023/04/07 01:28:36;;;;;;;9.93;3.08;;;;;;;;;;5084204;28;20046;-46
2023/04/07 01:31:05;;;;;;;6.30;1.80;;;;;;;;;;5057771;28;20127;-44
2023/04/07 01:33:34;;;;;;;6.38;0.88;;;;;;;;;;5080633;28;20089;-44
2023/04/07 01:36:05;;;;;;;3.60;0.80;;;;;;;;;;5089369;28;20386;-44
2023/04/07 01:38:33;;;;;;;5.53;0.98;;;;;;;;;;5078523;28;20259;-48
2023/04/07 01:41:01;;;;;;;5.22;0.57;;;;;;;;;;5083758;28;20078;-44
2023/04/07 01:43:30;;;;;;;4.07;1.00;;;;;;;;;;5064477;28;20040;-43
2023/04/07 01:45:59;;;;;;;4.45;0.70;;;;;;;;;;5091865;28;20093;-44
2023/04/07 01:48:28;;;;;;;3.90;0.70;;;;;;;;;;5088358;28;20047;-44
2023/04/07 01:50:56;;;;;;;4.20;0.80;;;;;;;;;;5088751;28;20067;-44
2023/04/07 01:53:24;;;;;;;6.72;0.85;;;;;;;;;;5089126;28;21141;-45
2023/04/07 01:55:52;;;;;;;3.92;0.70;;;;;;;;;;5096701;28;20521;-45
2023/04/07 01:58:20;;;;;;;4.10;1.00;;;;;;;;;;5085111;28;20043;-46
2023/04/07 02:00:49;;;;;;;4.37;0.70;;;;;;;;;;5094552;28;20036;-46
2023/04/07 02:03:20;;;;;;;4.05;0.55;;;;;;;;;;5085305;28;20067;-44
2023/04/07 02:05:52;;;;;;;4.82;1.75;;;;;;;;;;5090438;28;20036;-44
2023/04/07 02:08:21;;;;;;;4.65;0.82;;;;;;;;;;5072367;28;20039;-44
2023/04/07 02:10:50;;;;;;;3.80;0.73;;;;;;;;;;5089432;28;20126;-45
2023/04/07 02:13:19;;;;;;;5.00;1.13;;;;;;;;;;5079840;28;20564;-44
2023/04/07 02:15:47;;;;;;;4.70;1.20;;;;;;;;;;5081876;28;20497;-44
2023/04/07 02:18:17;;;;;;;7.65;0.90;;;;;;;;;;5087119;28;20468;-44
2023/04/07 02:20:45;;;;;;;6.82;1.13;;;;;;;;;;5085914;28;20115;-43
2023/04/07 02:23:15;;;;;;;4.65;0.98;;;;;;;;;;5090007;28;20086;-43
2023/04/07 02:25:43;;;;;;;4.23;0.60;;;;;;;;;;5082353;28;20032;-44
2023/04/07 02:28:11;;;;;;;4.82;0.80;;;;;;;;;;5085507;27;20035;-45
2023/04/07 02:30:39;;;;;;;4.78;0.77;;;;;;;;;;5077377;28;20075;-44
2023/04/07 02:33:07;;;;;;;4.50;0.65;;;;;;;;;;5077549;28;20119;-44
2023/04/07 02:35:35;;;;;;;7.50;1.15;;;;;;;;;;5076322;28;20044;-44
2023/04/07 02:38:02;;;;;;;4.60;0.90;;;;;;;;;;5094006;28;20044;-44
2023/04/07 02:40:32;;;;;;;4.15;0.80;;;;;;;;;;5088588;28;20036;-44
2023/04/07 02:43:00;;;;;;;4.53;1.10;;;;;;;;;;5070491;28;20131;-45
2023/04/07 02:45:27;;;;;;;12.00;1.15;;;;;;;;;;5090442;28;20497;-45
2023/04/07 02:47:55;;;;;;;5.57;1.15;;;;;;;;;;5083034;28;20127;-44
2023/04/07 02:50:24;;;;;;;5.30;0.70;;;;;;;;;;5090074;28;20036;-45
2023/04/07 02:52:52;;;;;;;4.53;1.00;;;;;;;;;;5087899;28;20040;-44
2023/04/07 02:55:20;;;;;;;3.92;0.85;;;;;;;;;;5080305;28;20325;-44
2023/04/07 02:57:49;;;;;;;6.90;1.27;;;;;;;;;;5073872;28;20104;-44
2023/04/07 03:00:16;;;;;;;6.10;0.95;;;;;;;;;;5078996;28;20122;-44
2023/04/07 03:02:45;;;;;;;4.80;1.20;;;;;;;;;;5091067;28;20501;-45
2023/04/07 03:05:13;;;;;;;5.20;0.90;;;;;;;;;;5087599;28;20092;-45
2023/04/07 03:07:41;;;;;;;4.10;0.93;;;;;;;;;;5084976;28;20096;-43
2023/04/07 03:10:09;;;;;;;6.80;1.30;;;;;;;;;;5085763;28;20051;-45
2023/04/07 03:12:37;;;;;;;4.32;0.80;;;;;;;;;;5082150;28;20093;-43
2023/04/07 03:15:07;;;;;;;4.83;1.20;;;;;;;;;;5091899;28;20038;-43
2023/04/07 03:17:35;;;;;;;5.00;1.20;;;;;;;;;;5081360;28;20115;-45
2023/04/07 03:20:02;;;;;;;4.90;0.93;;;;;;;;;;5079800;28;20116;-46
2023/04/07 03:22:30;;;;;;;5.32;0.65;;;;;;;;;;5084583;28;20076;-44
2023/04/07 03:24:57;;;;;;;6.78;1.30;;;;;;;;;;5076120;28;20122;-44
2023/04/07 03:27:25;;;;;;;5.43;0.90;;;;;;;;;;5075731;28;20514;-45
2023/04/07 03:29:53;;;;;;;6.90;1.02;;;;;;;;;;5073587;28;20040;-46
2023/04/07 03:32:22;;;;;;;4.50;0.85;;;;;;;;;;5088498;28;20046;-43
2023/04/07 03:34:49;;;;;;;7.38;1.00;;;;;;;;;;5084183;28;20035;-44
2023/04/07 03:37:17;;;;;;;6.13;1.00;;;;;;;;;;5072227;28;20576;-45
2023/04/07 03:39:45;;;;;;;4.00;0.93;;;;;;;;;;5079148;28;20085;-46
2023/04/07 03:42:13;;;;;;;7.85;1.08;;;;;;;;;;5090157;28;20398;-46
2023/04/07 03:44:41;;;;;;;4.72;0.80;;;;;;;;;;5088138;28;20561;-47
2023/04/07 03:47:09;;;;;;;4.40;0.98;;;;;;;;;;5090646;28;20076;-46
2023/04/07 03:49:38;;;;;;;4.38;0.88;;;;;;;;;;5090161;28;20066;-47
2023/04/07 03:52:05;;;;;;;5.60;1.27;;;;;;;;;;5089053;28;20069;-44
2023/04/07 03:54:34;;;;;;;5.70;1.17;;;;;;;;;;5074265;28;20772;-44
2023/04/07 03:57:02;;;;;;;4.93;0.80;;;;;;;;;;5080575;28;20178;-44
2023/04/07 03:59:29;;;;;;;4.75;0.90;;;;;;;;;;5086602;28;20047;-46
2023/04/07 04:01:57;;;;;;;4.43;0.88;;;;;;;;;;5084797;28;20036;-45
2023/04/07 04:04:25;;;;;;;5.30;0.90;;;;;;;;;;5088391;28;20043;-44
2023/04/07 04:06:54;;;;;;;3.95;1.00;;;;;;;;;;5090406;28;20043;-44
2023/04/07 04:09:22;;;;;;;5.13;0.80;;;;;;;;;;5090256;28;20036;-46
2023/04/07 04:11:50;;;;;;;7.85;1.23;;;;;;;;;;5084625;28;20082;-45
2023/04/07 04:14:17;;;;;;;5.20;1.08;;;;;;;;;;5081468;28;20523;-44
2023/04/07 04:16:45;;;;;;;6.00;0.93;;;;;;;;;;5085881;28;20046;-44
2023/04/07 04:19:13;;;;;;;7.95;0.80;;;;;;;;;;5084391;28;20107;-45
2023/04/07 04:21:41;;;;;;;4.63;0.73;;;;;;;;;;5086754;28;20040;-44
2023/04/07 04:24:10;;;;;;;5.53;0.73;;;;;;;;;;5077090;28;20055;-44
2023/04/07 04:26:38;;;;;;;5.97;0.85;;;;;;;;;;5076661;28;20070;-44
2023/04/07 04:29:05;;;;;;;5.87;1.00;;;;;;;;;;5082947;28;20039;-45
2023/04/07 04:31:34;;;;;;;4.93;1.10;;;;;;;;;;5082805;28;20052;-44
2023/04/07 04:34:02;;;;;;;5.05;0.90;;;;;;;;;;5116702;27;20040;-45
2023/04/07 04:36:30;;;;;;;4.90;1.05;;;;;;;;;;5085838;28;20046;-44
2023/04/07 04:38:58;;;;;;;4.60;0.95;;;;;;;;;;5086782;28;20227;-45
2023/04/07 04:41:26;;;;;;;4.27;1.00;;;;;;;;;;5082472;28;20119;-45
2023/04/07 04:43:54;;;;;;;5.82;1.00;;;;;;;;;;5084236;28;20486;-45
2023/04/07 04:46:22;;;;;;;5.97;0.77;;;;;;;;;;5079541;28;20101;-43
2023/04/07 04:48:50;;;;;;;5.30;1.20;;;;;;;;;;5079225;28;20902;-45
2023/04/07 04:51:17;;;;;;;6.55;1.23;;;;;;;;;;5083853;28;20561;-45
2023/04/07 04:53:46;;;;;;;4.57;0.90;;;;;;;;;;5088065;28;20646;-44
2023/04/07 04:56:14;;;;;;;4.28;0.75;;;;;;;;;;5086752;28;20559;-44
2023/04/07 04:58:45;;;;;;;6.28;1.25;;;;;;;;;;5093381;28;20051;-44
2023/04/07 05:01:13;;;;;;;6.15;1.00;;;;;;;;;;5084084;28;20046;-45
2023/04/07 05:03:41;;;;;;;9.60;1.35;;;;;;;;;;5078898;28;20040;-45
2023/04/07 05:06:09;;;;;;;5.43;1.20;;;;;;;;;;5089750;28;20036;-45
2023/04/07 05:08:37;;;;;;;5.95;1.15;;;;;;;;;;5083144;28;20516;-44
2023/04/07 05:11:05;;;;;;;4.20;0.88;;;;;;;;;;5086200;28;20095;-43
2023/04/07 05:13:33;;;;;;;4.78;1.13;;;;;;;;;;5080547;28;20517;-46
2023/04/07 05:16:02;;;;;;;4.03;0.73;;;;;;;;;;5092093;28;20048;-43
2023/04/07 05:18:29;;;;;;;7.23;0.97;;;;;;;;;;5088802;28;20482;-43
2023/04/07 05:20:57;;;;;;;6.35;1.55;;;;;;;;;;5084312;28;20071;-43
2023/04/07 05:23:25;;;;;;;6.15;0.98;;;;;;;;;;5077712;28;20054;-43
2023/04/07 05:25:52;;;;;;;5.43;1.02;;;;;;;;;;5090908;28;20126;-44
2023/04/07 05:28:20;;;;;;;5.70;0.90;;;;;;;;;;5088764;28;20118;-44
2023/04/07 05:30:48;;;;;;;5.67;0.90;;;;;;;;;;5078495;28;20058;-44
2023/04/07 05:33:17;;;;;;;5.68;0.95;;;;;;;;;;5088576;28;20031;-44
2023/04/07 05:35:45;;;;;;;4.88;1.25;;;;;;;;;;5090366;28;20047;-45
2023/04/07 05:38:13;;;;;;;6.20;0.80;;;;;;;;;;5091666;28;20040;-46
2023/04/07 05:40:41;;;;;;;3.72;0.73;;;;;;;;;;5084481;28;20061;-43
2023/04/07 05:43:08;;;;;;;3.37;0.63;;;;;;;;;;5095828;28;20534;-45
2023/04/07 05:45:36;;;;;;;5.78;0.85;;;;;;;;;;5089334;28;20046;-46
2023/04/07 05:48:04;;;;;;;6.43;0.70;;;;;;;;;;5089736;28;20070;-44
2023/04/07 05:50:33;;;;;;;5.45;0.85;;;;;;;;;;5078747;28;20036;-45
2023/04/07 05:53:01;;;;;;;3.90;0.73;;;;;;;;;;5082886;28;20048;-46
2023/04/07 05:55:28;;;;;;;5.10;1.00;;;;;;;;;;5096324;28;20348;-44
2023/04/07 05:57:56;;;;;;;5.05;0.80;;;;;;;;;;5082951;28;20580;-45
2023/04/07 06:00:24;;;;;;;8.27;1.00;;;;;;;;;;5081373;28;20044;-43
2023/04/07 06:02:52;;;;;;;5.10;1.10;;;;;;;;;;5087850;28;20031;-44
2023/04/07 06:05:20;;;;;;;4.20;0.90;;;;;;;;;;5096020;28;20122;-44
2023/04/07 06:07:50;;;;;;;4.50;1.07;;;;;;;;;;5089058;28;20058;-43
2023/04/07 06:10:18;;;;;;;5.22;0.77;;;;;;;;;;5094810;28;20126;-45
2023/04/07 06:12:46;;;;;;;9.13;1.23;;;;;;;;;;5092790;28;20673;-44
2023/04/07 06:15:13;;;;;;;5.25;1.30;;;;;;;;;;5083174;28;20284;-43
2023/04/07 06:17:42;;;;;;;8.73;1.05;;;;;;;;;;5087130;28;20031;-45
2023/04/07 06:20:10;;;;;;;4.80;0.97;;;;;;;;;;5086823;28;20073;-43
2023/04/07 06:22:38;;;;;;;4.93;0.93;;;;;;;;;;5087346;28;20162;-44
2023/04/07 06:25:08;;;;;;;6.65;1.20;;;;;;;;;;5086964;28;20045;-45
2023/04/07 06:27:36;;;;;;;3.40;0.68;;;;;;;;;;5081896;28;20915;-45
2023/04/07 06:30:04;;;;;;;5.25;1.10;;;;;;;;;;5083268;28;20115;-44
2023/04/07 06:32:32;;;;;;;4.80;0.77;;;;;;;;;;5087414;28;20126;-43
2023/04/07 06:35:00;;;;;;;6.88;1.00;;;;;;;;;;5084934;28;20467;-44
2023/04/07 06:37:27;;;;;;;9.18;0.98;;;;;;;;;;5083856;28;20036;-44
2023/04/07 06:39:55;;;;;;;5.97;1.30;;;;;;;;;;5090452;28;20115;-44
2023/04/07 06:42:24;;;;;;;7.75;0.88;;;;;;;;;;5085627;28;20048;-45
2023/04/07 06:44:52;;;;;;;4.93;1.13;;;;;;;;;;5087446;28;20063;-44
2023/04/07 06:47:20;;;;;;;3.53;0.65;;;;;;;;;;5095152;28;20127;-45
2023/04/07 06:49:48;;;;;;;6.95;1.00;;;;;;;;;;5082768;28;20432;-44
2023/04/07 06:52:16;;;;;;;5.50;1.00;;;;;;;;;;5082320;28;20035;-45
2023/04/07 06:54:43;;;;;;;4.88;0.70;;;;;;;;;;5088865;28;20123;-43
2023/04/07 06:57:11;;;;;;;4.87;0.93;;;;;;;;;;5088482;28;20036;-44
2023/04/07 06:59:40;;;;;;;3.85;0.60;;;;;;;;;;5082403;28;20054;-44
2023/04/07 07:02:08;;;;;;;3.95;0.55;;;;;;;;;;5086825;28;20044;-44
2023/04/07 07:04:36;;;;;;;6.28;1.00;;;;;;;;;;5078548;28;20545;-46
2023/04/07 07:07:03;;;;;;;6.63;0.77;;;;;;;;;;5089756;28;20680;-45
2023/04/07 07:09:31;;;;;;;5.50;0.63;;;;;;;;;;5079002;28;20070;-44
2023/04/07 07:12:00;;;;;;;4.53;0.57;;;;;;;;;;5084939;28;21338;-45
2023/04/07 07:14:30;;;;;;;5.97;0.57;;;;;;;;;;5079611;28;20104;-46
2023/04/07 07:16:59;;;;;;;7.15;0.98;;;;;;;;;;5087928;28;20042;-43
2023/04/07 07:19:27;;;;;;;5.43;0.68;;;;;;;;;;5085807;28;20059;-46
2023/04/07 07:21:55;;;;;;;5.70;0.77;;;;;;;;;;5085114;27;20097;-46
2023/04/07 07:24:22;;;;;;;4.50;1.00;;;;;;;;;;5081496;28;20091;-45
2023/04/07 07:26:50;;;;;;;4.93;0.70;;;;;;;;;;5084010;28;20040;-45
2023/04/07 07:29:18;;;;;;;8.18;0.65;;;;;;;;;;5088418;28;20054;-46
2023/04/07 07:31:46;;;;;;;7.28;0.85;;;;;;;;;;5076294;28;20550;-47
2023/04/07 07:34:15;;;;;;;6.37;0.50;;;;;;;;;;5085383;28;20130;-44
2023/04/07 07:36:42;;;;;;;2.78;0.57;;;;;;;;;;5082555;28;20412;-44
2023/04/07 07:39:10;;;;;;;4.82;0.75;;;;;;;;;;5088936;28;20033;-48
2023/04/07 07:41:38;;;;;;;3.85;0.57;;;;;;;;;;5080178;28;20040;-45
2023/04/07 07:44:05;;;;;;;4.93;1.02;;;;;;;;;;5078512;28;20075;-43
2023/04/07 07:46:33;;;;;;;6.83;0.53;;;;;;;;;;5080078;28;20024;-43
2023/04/07 07:49:00;;;;;;;5.25;0.65;;;;;;;;;;5086535;28;20054;-46
2023/04/07 07:51:29;;;;;;;6.07;1.05;;;;;;;;;;5084923;28;20036;-45
2023/04/07 07:53:57;;;;;;;4.95;0.75;;;;;;;;;;5084897;28;20138;-45
2023/04/07 07:56:25;;;;;;;3.33;0.57;;;;;;;;;;5076835;28;20061;-46
2023/04/07 07:58:57;;;;;;;6.17;0.50;;;;;;;;;;5077647;28;20067;-44
2023/04/07 08:01:25;;;;;;;3.45;0.40;;;;;;;;;;5079688;28;20036;-44
2023/04/07 08:03:53;;;;;;;3.60;0.50;;;;;;;;;;5080992;28;20032;-44
2023/04/07 08:06:21;;;;;;;5.45;0.57;;;;;;;;;;5079574;28;20039;-44
2023/04/07 08:08:50;;;;;;;6.28;0.60;;;;;;;;;;5075196;28;20109;-44
2023/04/07 08:11:17;;;;;;;4.37;0.70;;;;;;;;;;5085634;28;20054;-46
2023/04/07 08:13:45;;;;;;;7.20;0.80;;;;;;;;;;5072332;28;20064;-45
2023/04/07 08:16:13;;;;;;;6.53;0.55;;;;;;;;;;5079692;28;20039;-45
2023/04/07 08:18:41;;;;;;;6.35;0.95;;;;;;;;;;5075621;28;20036;-44
2023/04/07 08:21:09;;;;;;;5.35;0.50;;;;;;;;;;5084161;28;20135;-49
2023/04/07 08:23:37;;;;;;;3.97;0.60;;;;;;;;;;5075381;28;20035;-46
2023/04/07 08:26:07;;;;;;;3.45;0.50;;;;;;;;;;5084052;28;20078;-46
2023/04/07 08:28:35;;;;;;;4.07;0.50;;;;;;;;;;5083517;28;20489;-44
2023/04/07 08:31:02;;;;;;;4.07;0.43;;;;;;;;;;5082759;28;20088;-46
2023/04/07 08:33:31;;;;;;;6.97;0.55;;;;;;;;;;5071756;28;20075;-44
2023/04/07 08:35:59;;;;;;;3.57;0.67;;;;;;;;;;5090395;28;20099;-44
2023/04/07 08:38:27;;;;;;;4.45;1.17;;;;;;;;;;4380197;28;10000752;-44
2023/04/07 08:40:58;;;;;;;3.63;0.60;;;;;;;;;;5077093;28;20040;-43
2023/04/07 08:43:28;;;;;;;3.70;0.52;;;;;;;;;;5082512;28;20050;-46
2023/04/07 08:45:57;;;;;;;5.65;0.73;;;;;;;;;;5067850;28;20121;-45
2023/04/07 08:48:26;;;;;;;4.72;0.77;;;;;;;;;;5092690;28;20044;-46
2023/04/07 08:50:53;;;;;;;7.03;0.50;;;;;;;;;;5081700;28;20118;-45
2023/04/07 08:53:23;;;;;;;7.37;0.70;;;;;;;;;;4736789;27;9999996;-44
2023/04/07 08:55:52;;;;;;;4.83;0.50;;;;;;;;;;5082955;28;20039;-46
2023/04/07 08:58:20;;;;;;;5.47;0.57;;;;;;;;;;5080111;28;20075;-47
2023/04/07 09:00:49;;;;;;;12.73;1.05;;;;;;;;;;5086612;28;20059;-45
2023/04/07 09:03:17;;;;;;;3.08;0.40;;;;;;;;;;5087691;28;20469;-46
2023/04/07 09:05:46;;;;;;;5.70;0.52;;;;;;;;;;5094293;28;20031;-46
2023/04/07 09:08:13;;;;;;;4.53;0.90;;;;;;;;;;5088033;28;20051;-46
2023/04/07 09:10:41;;;;;;;4.65;0.57;;;;;;;;;;5085226;28;20660;-45
2023/04/07 09:13:09;;;;;;;4.63;0.65;;;;;;;;;;5081201;28;20097;-44
2023/04/07 09:15:37;;;;;;;5.10;0.40;;;;;;;;;;5085988;28;20047;-45
2023/04/07 09:18:06;;;;;;;7.45;0.50;;;;;;;;;;5080079;28;20044;-46
2023/04/07 09:20:53;;;;;;;4.83;0.30;;;;;;;;;;5087310;28;20035;-44
2023/04/07 09:23:27;;;;;;;5.13;0.50;;;;;;;;;;5084356;28;20040;-44
2023/04/07 09:25:55;;;;;;;7.43;0.50;;;;;;;;;;5092419;28;20057;-45
2023/04/07 09:28:22;;;;;;;3.88;0.40;;;;;;;;;;5081526;28;20071;-47
2023/04/07 09:30:53;;;;;;;4.30;0.43;;;;;;;;;;5084617;28;20109;-47
2023/04/07 09:33:28;;;;;;;3.97;0.50;;;;;;;;;;5082269;28;20042;-44
2023/04/07 09:35:56;;;;;;;3.58;0.38;;;;;;;;;;5082715;28;20072;-46
2023/04/07 09:38:32;;;;;;;3.60;0.20;;;;;;;;;;5086864;28;20036;-46
2023/04/07 09:41:05;;;;;;;5.07;0.52;;;;;;;;;;5089528;28;20139;-45
2023/04/07 09:43:33;;;;;;;6.40;0.50;;;;;;;;;;5089395;28;20024;-47
2023/04/07 09:46:07;;;;;;;5.73;0.67;;;;;;;;;;5094405;28;20043;-44
2023/04/07 09:48:36;;;;;;;8.32;0.65;;;;;;;;;;5080947;28;20116;-45
2023/04/07 09:51:08;;;;;;;5.10;0.50;;;;;;;;;;5081156;28;22199;-47
2023/04/07 09:53:46;;;;;;;3.50;0.43;;;;;;;;;;5081028;28;20466;-44
2023/04/07 09:56:16;;;;;;;6.60;0.40;;;;;;;;;;5083526;28;20032;-47
2023/04/07 09:58:45;;;;;;;2.20;0.30;;;;;;;;;;5084237;28;20134;-46
2023/04/07 10:01:13;;;;;;;4.10;0.30;;;;;;;;;;5079595;28;20067;-45
2023/04/07 10:03:43;;;;;;;5.35;1.15;;;;;;;;;;5080617;28;20106;-44
2023/04/07 10:06:10;;;;;;;2.25;0.20;;;;;;;;;;5071312;28;20141;-45
2023/04/07 10:08:39;;;;;;;3.53;0.40;;;;;;;;;;5084328;28;20042;-45
2023/04/07 10:11:07;;;;;;;4.63;0.50;;;;;;;;;;5078493;28;20046;-45
2023/04/07 10:13:36;;;;;;;4.57;0.65;;;;;;;;;;5080471;28;20155;-45
2023/04/07 10:16:05;;;;;;;3.70;0.30;;;;;;;;;;5084122;28;20067;-46
2023/04/07 10:18:35;;;;;;;3.25;0.40;;;;;;;;;;5076774;28;20710;-46
2023/04/07 10:21:06;;;;;;;3.30;0.40;;;;;;;;;;5089480;28;20436;-43
2023/04/07 10:23:43;;;;;;;2.20;0.30;;;;;;;;;;5078525;28;20040;-45
2023/04/07 10:26:12;;;;;;;4.20;0.50;;;;;;;;;;5084180;28;20064;-45
2023/04/07 10:28:41;;;;;;;4.47;0.38;;;;;;;;;;5080741;28;20049;-44
2023/04/07 10:31:08;;;;;;;2.53;0.30;;;;;;;;;;5090310;28;20123;-45
2023/04/07 10:33:47;;;;;;;4.32;0.22;;;;;;;;;;5081566;28;20425;-46
2023/04/07 10:36:17;;;;;;;1.97;0.20;;;;;;;;;;5090636;28;20070;-44
2023/04/07 10:39:00;;;;;;;3.08;0.40;;;;;;;;;;5091929;28;20043;-46
2023/04/07 10:41:35;;;;;;;2.58;0.25;;;;;;;;;;5052861;28;20048;-47
2023/04/07 10:44:03;;;;;;;3.33;0.20;;;;;;;;;;5092072;28;20035;-45
2023/04/07 10:46:50;;;;;;;2.88;0.32;;;;;;;;;;5080692;28;20096;-46
2023/04/07 10:49:20;;;;;;;5.50;0.73;;;;;;;;;;5083967;28;20050;-45
2023/04/07 10:52:19;;;;;;;3.10;0.30;;;;;;;;;;5087887;28;20084;-46
2023/04/07 10:54:47;;;;;;;5.03;0.30;;;;;;;;;;4388862;27;10000048;-46
2023/04/07 10:57:15;;;;;;;2.78;0.38;;;;;;;;;;5079853;28;20068;-47
2023/04/07 10:59:58;;;;;;;3.17;0.30;;;;;;;;;;5079755;28;20089;-49
2023/04/07 11:02:33;;;;;;;4.93;0.40;;;;;;;;;;5085407;28;20059;-48
2023/04/07 11:05:02;;;;;;;5.00;0.40;;;;;;;;;;5079461;28;20448;-46
2023/04/07 11:07:48;;;;;;;4.57;0.30;;;;;;;;;;5076038;28;20363;-48
2023/04/07 11:10:18;;;;;;;3.08;0.40;;;;;;;;;;5091488;28;20035;-46
2023/04/07 11:13:03;;;;;;;4.05;0.38;;;;;;;;;;5072810;28;20059;-47
2023/04/07 11:15:30;;;;;;;2.90;0.38;;;;;;;;;;5077109;28;20043;-47
2023/04/07 11:18:15;;;;;;;3.33;0.33;;;;;;;;;;5089375;28;20127;-45
2023/04/07 11:20:45;;;;;;;3.28;0.40;;;;;;;;;;5070351;28;20743;-45
2023/04/07 11:23:15;;;;;;;5.00;0.20;;;;;;;;;;5085913;28;20062;-45
2023/04/07 11:25:45;;;;;;;2.95;0.30;;;;;;;;;;5077030;28;20118;-49
2023/04/07 11:28:13;;;;;;;2.60;0.20;;;;;;;;;;5089740;28;20043;-47
2023/04/07 11:30:46;;;;;;;2.63;0.30;;;;;;;;;;5080592;28;20554;-48
2023/04/07 11:33:18;;;;;;;5.10;0.40;;;;;;;;;;5082758;28;20040;-45
2023/04/07 11:35:50;;;;;;;2.92;0.55;;;;;;;;;;5081432;28;20577;-46
2023/04/07 11:38:19;;;;;;;2.53;0.30;;;;;;;;;;5081577;28;20520;-47
2023/04/07 11:40:47;;;;;;;2.83;0.30;;;;;;;;;;5085601;28;20043;-46
2023/04/07 11:43:16;;;;;;;3.10;0.40;;;;;;;;;;5078635;28;20056;-46
2023/04/07 11:45:44;;;;;;;3.00;0.50;;;;;;;;;;5084960;28;20038;-46
2023/04/07 11:48:25;;;;;;;3.70;0.30;;;;;;;;;;5082705;28;20031;-47
2023/04/07 11:50:53;;;;;;;3.45;0.30;;;;;;;;;;5075942;28;20036;-45
2023/04/07 11:53:29;;;;;;;2.95;0.43;;;;;;;;;;5072472;28;20123;-46
2023/04/07 11:56:04;;;;;;;2.23;0.30;;;;;;;;;;5078269;28;20089;-45
2023/04/07 11:58:32;;;;;;;1.85;0.30;;;;;;;;;;5085615;28;20089;-46
2023/04/07 12:01:03;;;;;;;1.85;0.50;;;;;;;;;;5069812;28;21481;-47
2023/04/07 12:03:31;;;;;;;2.28;0.30;;;;;;;;;;5076414;28;20474;-47
2023/04/07 12:06:00;;;;;;;2.58;0.30;;;;;;;;;;5080101;28;20086;-46
2023/04/07 12:08:38;;;;;;;2.07;0.33;;;;;;;;;;5088115;28;20046;-47
2023/04/07 12:11:06;;;;;;;5.03;0.45;;;;;;;;;;5084940;28;20079;-45
2023/04/07 12:13:35;;;;;;;1.73;0.22;;;;;;;;;;5083757;28;20122;-45
2023/04/07 12:16:03;;;;;;;1.98;0.30;;;;;;;;;;5082550;28;20054;-47
2023/04/07 12:18:30;;;;;;;2.20;0.40;;;;;;;;;;5084446;28;20097;-46
2023/04/07 12:20:58;;;;;;;3.40;0.30;;;;;;;;;;5086474;28;20043;-48
2023/04/07 12:23:26;;;;;;;4.18;0.40;;;;;;;;;;5082467;28;20047;-47
2023/04/07 12:25:55;;;;;;;3.10;0.40;;;;;;;;;;5081892;28;20066;-47
2023/04/07 12:28:23;;;;;;;3.35;0.30;;;;;;;;;;5083551;28;20032;-45
2023/04/07 12:30:50;;;;;;;2.35;0.30;;;;;;;;;;5092543;28;20382;-46
2023/04/07 12:33:18;;;;;;;1.53;0.20;;;;;;;;;;5069658;28;20119;-46
2023/04/07 12:35:46;;;;;;;2.42;0.25;;;;;;;;;;5084328;28;20186;-48
2023/04/07 12:38:14;;;;;;;3.40;0.28;;;;;;;;;;5081199;28;20032;-49
2023/04/07 12:40:42;;;;;;;2.78;0.30;;;;;;;;;;5088866;28;20043;-46
2023/04/07 12:43:11;;;;;;;4.50;0.40;;;;;;;;;;5071500;28;20138;-49
2023/04/07 12:45:39;;;;;;;3.00;0.33;;;;;;;;;;5092506;28;20067;-47
2023/04/07 12:48:07;;;;;;;3.03;0.40;;;;;;;;;;5078136;28;20510;-48
2023/04/07 12:50:35;;;;;;;3.13;0.40;;;;;;;;;;5080070;28;20040;-47
2023/04/07 12:53:04;;;;;;;4.10;0.40;;;;;;;;;;5074852;28;20044;-47
2023/04/07 12:55:34;;;;;;;1.85;0.30;;;;;;;;;;5088823;28;20050;-48
2023/04/07 12:58:02;;;;;;;1.90;0.30;;;;;;;;;;5084043;28;20398;-51
2023/04/07 13:00:30;;;;;;;2.28;0.45;;;;;;;;;;5084611;28;20135;-46
2023/04/07 13:02:58;;;;;;;1.77;0.20;;;;;;;;;;5084727;28;20075;-47
2023/04/07 13:05:26;;;;;;;3.13;0.35;;;;;;;;;;5079788;28;20046;-46
2023/04/07 13:07:53;;;;;;;3.03;0.30;;;;;;;;;;5076104;28;20035;-45
2023/04/07 13:10:21;;;;;;;2.47;0.40;;;;;;;;;;5075299;28;20139;-48
2023/04/07 13:12:49;;;;;;;3.25;0.30;;;;;;;;;;5087940;28;20462;-48
2023/04/07 13:15:17;;;;;;;2.15;0.30;;;;;;;;;;5085770;28;20131;-45
2023/04/07 13:17:46;;;;;;;2.38;0.28;;;;;;;;;;5086664;28;20485;-46
2023/04/07 13:20:14;;;;;;;2.88;0.38;;;;;;;;;;5094445;28;20047;-46
2023/04/07 13:22:43;;;;;;;3.53;0.30;;;;;;;;;;5075108;28;20047;-52
2023/04/07 13:25:22;;;;;;;2.53;0.30;;;;;;;;;;5075971;28;20055;-46
2023/04/07 13:27:49;;;;;;;4.05;0.35;;;;;;;;;;5092245;28;20592;-46
2023/04/07 13:30:17;;;;;;;3.70;0.43;;;;;;;;;;5081340;28;20059;-47
2023/04/07 13:32:48;;;;;;;4.05;0.50;;;;;;;;;;5075959;28;20043;-46
2023/04/07 13:35:16;;;;;;;2.10;0.40;;;;;;;;;;5070018;28;20077;-47
2023/04/07 13:37:44;;;;;;;2.92;0.30;;;;;;;;;;5076375;28;20744;-47
2023/04/07 13:40:12;;;;;;;2.42;0.40;;;;;;;;;;5070045;28;20032;-45
2023/04/07 13:42:40;;;;;;;6.22;0.30;;;;;;;;;;5095550;28;20036;-47
2023/04/07 13:45:08;;;;;;;3.17;0.38;;;;;;;;;;5072447;28;20122;-46
2023/04/07 13:47:35;;;;;;;2.00;0.50;;;;;;;;;;5090706;28;20392;-45
2023/04/07 13:50:05;;;;;;;4.53;0.50;;;;;;;;;;5086724;28;20126;-46
2023/04/07 13:52:34;;;;;;;2.53;0.50;;;;;;;;;;5085102;28;20118;-47
2023/04/07 13:55:04;;;;;;;4.85;0.50;;;;;;;;;;5090850;28;20871;-46
2023/04/07 13:57:32;;;;;;;1.88;0.20;;;;;;;;;;5083989;28;20126;-50
2023/04/07 14:00:00;;;;;;;3.57;0.53;;;;;;;;;;5091905;28;20042;-45
2023/04/07 14:02:28;;;;;;;3.70;0.68;;;;;;;;;;5072008;28;20070;-45
2023/04/07 14:04:56;;;;;;;2.03;0.30;;;;;;;;;;5092108;28;20044;-47
2023/04/07 14:07:25;;;;;;;4.18;0.82;;;;;;;;;;5084312;28;20078;-48
2023/04/07 14:09:54;;;;;;;4.13;0.30;;;;;;;;;;5089497;28;20077;-47
2023/04/07 14:12:22;;;;;;;2.53;0.30;;;;;;;;;;5081798;28;20044;-45
2023/04/07 14:14:51;;;;;;;2.83;0.40;;;;;;;;;;5078903;28;20600;-47
2023/04/07 14:17:18;;;;;;;4.88;0.40;;;;;;;;;;5087602;28;20383;-48
2023/04/07 14:19:47;;;;;;;1.70;0.30;;;;;;;;;;5078538;28;20429;-48
2023/04/07 14:22:15;;;;;;;4.00;0.40;;;;;;;;;;5079911;28;20119;-48
2023/04/07 14:24:44;;;;;;;1.93;0.30;;;;;;;;;;5088588;28;20059;-49
2023/04/07 14:27:12;;;;;;;2.03;0.40;;;;;;;;;;5078337;28;20811;-46
2023/04/07 14:29:41;;;;;;;2.67;0.30;;;;;;;;;;5085205;28;20047;-47
2023/04/07 14:32:09;;;;;;;3.75;0.60;;;;;;;;;;5095304;27;20039;-48
2023/04/07 14:34:37;;;;;;;2.42;0.30;;;;;;;;;;5085300;28;20063;-46
2023/04/07 14:37:05;;;;;;;2.10;0.20;;;;;;;;;;5072140;28;20391;-49
2023/04/07 14:39:33;;;;;;;2.85;0.40;;;;;;;;;;5075168;28;20078;-46
2023/04/07 14:42:02;;;;;;;3.15;0.40;;;;;;;;;;5076321;28;20046;-45
2023/04/07 14:44:30;;;;;;;2.45;0.30;;;;;;;;;;5083690;28;20146;-47
2023/04/07 14:46:58;;;;;;;2.72;0.30;;;;;;;;;;5085351;28;20489;-46
2023/04/07 14:49:27;;;;;;;3.33;0.30;;;;;;;;;;5073179;28;20382;-46
2023/04/07 14:51:55;;;;;;;5.40;0.50;;;;;;;;;;5075570;28;20037;-46
2023/04/07 14:54:23;;;;;;;1.70;0.22;;;;;;;;;;5079126;28;20174;-47